Time;durP1;ratioP1;P1;durP2;ratioP2;P2;SDS_P1;SDS_P2;PMS_P1;PMS_P2;Temp;Humidity;BMP_temperature;BMP_pressure;BME280_temperature;BME280_humidity;BME280_pressure;Samples;Min_cycle;Max_cycle;Signal;HPM_P1;HPM_P2
2023/12/25 00:01:27;;;;;;;27.47;5.47;;;10.90;99.90;;;;;;5095454;28;20040;-75
2023/12/25 00:03:53;;;;;;;22.30;5.00;;;10.90;99.90;;;;;;5093418;28;20476;-75
2023/12/25 00:06:19;;;;;;;31.20;5.70;;;10.90;99.90;;;;;;5094033;28;20092;-75
2023/12/25 00:08:45;;;;;;;29.70;4.27;;;10.90;99.90;;;;;;5094333;28;20064;-75
2023/12/25 00:11:11;;;;;;;24.07;4.43;;;10.90;99.90;;;;;;5095316;28;20282;-76
2023/12/25 00:13:36;;;;;;;31.90;5.93;;;10.90;99.90;;;;;;5093453;28;20430;-76
2023/12/25 00:16:02;;;;;;;26.30;5.20;;;10.90;99.90;;;;;;5093457;28;20365;-76
2023/12/25 00:18:28;;;;;;;19.10;4.43;;;10.90;99.90;;;;;;5094210;28;20036;-76
2023/12/25 00:20:53;;;;;;;21.43;4.30;;;10.90;99.90;;;;;;5094824;28;20049;-76
2023/12/25 00:23:19;;;;;;;25.40;5.00;;;10.90;99.90;;;;;;5093232;28;20048;-75
2023/12/25 00:25:45;;;;;;;23.23;4.10;;;10.90;99.90;;;;;;5094217;28;20047;-75
2023/12/25 00:28:11;;;;;;;24.23;4.27;;;10.90;99.90;;;;;;5093989;28;20055;-75
2023/12/25 00:30:37;;;;;;;17.03;3.20;;;10.90;99.90;;;;;;5094158;28;20063;-75
2023/12/25 00:33:03;;;;;;;20.37;4.40;;;10.90;99.90;;;;;;5094699;28;20490;-75
2023/12/25 00:35:28;;;;;;;14.90;2.60;;;10.90;99.90;;;;;;5093147;28;20070;-75
2023/12/25 00:37:54;;;;;;;15.33;3.13;;;10.80;99.90;;;;;;5093302;28;20142;-76
2023/12/25 00:40:19;;;;;;;16.97;3.10;;;10.80;99.90;;;;;;5093631;28;20055;-75
2023/12/25 00:42:45;;;;;;;16.90;3.27;;;10.80;99.90;;;;;;5076227;28;20102;-76
2023/12/25 00:45:11;;;;;;;17.67;3.57;;;10.70;99.90;;;;;;5092822;28;20440;-76
2023/12/25 00:47:36;;;;;;;12.33;2.80;;;10.70;99.90;;;;;;5093978;28;20122;-75
2023/12/25 00:50:02;;;;;;;13.10;3.03;;;10.70;99.90;;;;;;5093717;28;20502;-76
2023/12/25 00:52:28;;;;;;;14.53;3.20;;;10.70;99.90;;;;;;5093816;28;20055;-75
2023/12/25 00:54:54;;;;;;;18.83;3.53;;;10.70;99.90;;;;;;5092706;28;20282;-76
2023/12/25 00:57:19;;;;;;;13.40;2.93;;;10.70;99.90;;;;;;5093059;28;20041;-76
2023/12/25 00:59:45;;;;;;;17.67;3.60;;;10.70;99.90;;;;;;5093333;28;20044;-76
2023/12/25 01:02:11;;;;;;;15.80;2.97;;;10.60;99.90;;;;;;5093387;28;20210;-76
2023/12/25 01:04:37;;;;;;;12.57;2.73;;;10.60;99.90;;;;;;5097657;28;20051;-76
2023/12/25 01:07:03;;;;;;;17.23;3.23;;;10.60;99.90;;;;;;5099930;28;20052;-76
2023/12/25 01:09:28;;;;;;;14.27;2.40;;;10.60;99.90;;;;;;5100067;28;20060;-76
2023/12/25 01:11:54;;;;;;;12.80;2.57;;;10.60;99.90;;;;;;5099590;28;20084;-76
2023/12/25 01:14:20;;;;;;;18.40;2.87;;;10.60;99.90;;;;;;5099435;28;20392;-76
2023/12/25 01:16:46;;;;;;;14.77;2.63;;;10.60;99.90;;;;;;5099238;28;20055;-76
2023/12/25 01:19:12;;;;;;;14.67;2.73;;;10.50;99.90;;;;;;5100374;28;20063;-75
2023/12/25 01:21:38;;;;;;;12.80;2.67;;;10.50;99.90;;;;;;5100358;28;20154;-76
2023/12/25 01:24:04;;;;;;;14.07;3.13;;;10.50;99.90;;;;;;5100669;28;20361;-76
2023/12/25 01:26:32;;;;;;;13.33;2.50;;;10.50;99.90;;;;;;5100233;28;20044;-76
2023/12/25 01:28:58;;;;;;;14.30;3.03;;;10.50;99.90;;;;;;5099077;28;20044;-76
2023/12/25 01:31:24;;;;;;;16.87;3.60;;;10.50;99.90;;;;;;5099201;28;20290;-76
2023/12/25 01:33:49;;;;;;;14.83;3.53;;;10.50;99.90;;;;;;5082710;28;20040;-76
2023/12/25 01:36:15;;;;;;;17.47;3.43;;;10.50;99.90;;;;;;5100773;28;20485;-76
2023/12/25 01:38:41;;;;;;;16.10;2.50;;;10.50;99.90;;;;;;5100092;28;20047;-76
2023/12/25 01:41:06;;;;;;;18.10;3.03;;;10.50;99.90;;;;;;5082787;28;20130;-76
2023/12/25 01:43:32;;;;;;;13.53;2.97;;;10.40;99.90;;;;;;5099144;28;20047;-76
2023/12/25 01:45:58;;;;;;;14.57;3.20;;;10.40;99.90;;;;;;5100428;28;20048;-76
2023/12/25 01:48:24;;;;;;;15.73;2.40;;;10.40;99.90;;;;;;5100378;28;20483;-76
2023/12/25 01:50:52;;;;;;;22.43;3.57;;;10.40;99.90;;;;;;5100104;28;20048;-76
2023/12/25 01:53:17;;;;;;;18.20;3.47;;;10.30;99.90;;;;;;5100337;28;20342;-76
2023/12/25 01:55:43;;;;;;;14.47;2.87;;;10.30;99.90;;;;;;5100029;28;20274;-76
2023/12/25 01:58:09;;;;;;;22.80;3.70;;;10.30;99.90;;;;;;5099884;28;20036;-76
2023/12/25 02:00:34;;;;;;;20.90;3.30;;;10.30;99.90;;;;;;5099048;28;20080;-76
2023/12/25 02:03:00;;;;;;;17.20;3.90;;;10.30;99.90;;;;;;5099986;28;20491;-76
2023/12/25 02:05:27;;;;;;;18.67;3.33;;;10.30;99.90;;;;;;5100750;28;20043;-76
2023/12/25 02:07:53;;;;;;;28.90;5.20;;;10.30;99.90;;;;;;5098553;28;20517;-76
2023/12/25 02:10:27;;;;;;;18.93;3.87;;;10.30;99.90;;;;;;5098789;28;20285;-76
2023/12/25 02:12:54;;;;;;;20.13;3.47;;;10.30;99.90;;;;;;5099700;28;20290;-76
2023/12/25 02:15:20;;;;;;;21.27;4.33;;;10.30;99.90;;;;;;5097167;28;20772;-76
2023/12/25 02:17:45;;;;;;;19.20;3.20;;;10.30;99.90;;;;;;5096907;28;20684;-76
2023/12/25 02:20:13;;;;;;;23.57;3.43;;;10.30;99.90;;;;;;5095479;28;20278;-76
2023/12/25 02:22:40;;;;;;;15.20;3.00;;;10.30;99.90;;;;;;5096606;28;20048;-76
2023/12/25 02:25:28;;;;;;;16.50;3.10;;;10.40;99.90;;;;;;5096628;28;20282;-76
2023/12/25 02:27:54;;;;;;;20.53;2.97;;;10.40;99.90;;;;;;5097073;28;20274;-76
2023/12/25 02:30:20;;;;;;;14.23;2.77;;;10.40;99.90;;;;;;5095449;28;20324;-76
2023/12/25 02:32:45;;;;;;;18.20;4.10;;;10.40;99.90;;;;;;5096337;28;20050;-76
2023/12/25 02:35:12;;;;;;;16.43;2.80;;;10.40;99.90;;;;;;5078706;28;20290;-76
2023/12/25 02:37:38;;;;;;;15.03;2.60;;;10.40;99.90;;;;;;5096190;28;20044;-76
2023/12/25 02:40:05;;;;;;;18.93;3.00;;;10.40;99.90;;;;;;5096574;28;20307;-76
2023/12/25 02:42:31;;;;;;;17.73;2.63;;;10.40;99.90;;;;;;5096167;28;20278;-76
2023/12/25 02:44:57;;;;;;;18.97;3.43;;;10.40;99.90;;;;;;5096108;28;20784;-76
2023/12/25 02:47:22;;;;;;;13.37;2.63;;;10.40;99.90;;;;;;5095846;28;20040;-76
2023/12/25 02:49:48;;;;;;;14.63;2.60;;;10.40;99.90;;;;;;5096338;28;20052;-76
2023/12/25 02:52:14;;;;;;;19.07;2.70;;;10.40;99.90;;;;;;5096109;28;20541;-76
2023/12/25 02:54:39;;;;;;;14.40;2.83;;;10.40;99.90;;;;;;5096564;28;20048;-76
2023/12/25 02:57:05;;;;;;;18.40;2.87;;;10.40;99.90;;;;;;5094224;28;20377;-76
2023/12/25 02:59:31;;;;;;;15.90;3.50;;;10.40;99.90;;;;;;5094700;28;20074;-76
2023/12/25 03:01:56;;;;;;;14.57;2.83;;;10.30;99.90;;;;;;5095426;28;20170;-76
2023/12/25 03:04:22;;;;;;;14.53;2.90;;;10.30;99.90;;;;;;5094461;28;20127;-76
2023/12/25 03:06:47;;;;;;;16.03;3.00;;;10.30;99.90;;;;;;5095431;28;20055;-76
2023/12/25 03:09:13;;;;;;;22.83;2.90;;;10.30;99.90;;;;;;5095002;28;20087;-76
2023/12/25 03:11:39;;;;;;;13.40;3.00;;;10.30;99.90;;;;;;5095529;28;20047;-76
2023/12/25 03:14:05;;;;;;;15.30;2.77;;;10.30;99.90;;;;;;5095885;28;20075;-76
2023/12/25 03:16:30;;;;;;;20.97;2.77;;;10.30;99.90;;;;;;5094368;28;20358;-76
2023/12/25 03:18:56;;;;;;;15.93;3.33;;;10.20;99.90;;;;;;5077329;28;20048;-76
2023/12/25 03:21:22;;;;;;;15.77;3.30;;;10.30;99.90;;;;;;5095953;28;20048;-76
2023/12/25 03:23:47;;;;;;;20.53;3.73;;;10.30;99.90;;;;;;5077972;28;20581;-76
2023/12/25 03:26:13;;;;;;;21.43;3.80;;;10.30;99.90;;;;;;5093896;28;20047;-76
2023/12/25 03:28:39;;;;;;;19.13;2.80;;;10.30;99.90;;;;;;5095238;28;20392;-76
2023/12/25 03:31:04;;;;;;;15.60;3.00;;;10.30;99.90;;;;;;5095249;28;20040;-76
2023/12/25 03:33:30;;;;;;;17.73;3.33;;;10.30;99.90;;;;;;5095013;28;20051;-76
2023/12/25 03:35:56;;;;;;;17.20;3.33;;;10.30;99.90;;;;;;5095387;28;20052;-76
2023/12/25 03:38:22;;;;;;;14.83;2.97;;;10.30;99.90;;;;;;5095356;28;20097;-76
2023/12/25 03:40:47;;;;;;;17.63;3.80;;;10.30;99.90;;;;;;5095052;28;20044;-76
2023/12/25 03:43:13;;;;;;;16.73;2.80;;;10.30;99.90;;;;;;5095052;28;20619;-76
2023/12/25 03:45:39;;;;;;;17.97;3.57;;;10.30;99.90;;;;;;5094593;28;20044;-76
2023/12/25 03:48:05;;;;;;;18.97;3.17;;;10.30;99.90;;;;;;5094906;28;20053;-76
2023/12/25 03:50:31;;;;;;;20.03;4.00;;;10.30;99.90;;;;;;5095721;28;20130;-76
2023/12/25 03:52:56;;;;;;;16.37;3.27;;;10.30;99.90;;;;;;5094825;28;20055;-76
2023/12/25 03:55:22;;;;;;;13.53;2.40;;;10.30;99.90;;;;;;5110543;28;20089;-76
2023/12/25 03:57:48;;;;;;;21.67;3.20;;;10.30;99.90;;;;;;5095416;28;20372;-76
2023/12/25 04:00:14;;;;;;;15.93;2.83;;;10.30;99.90;;;;;;5076885;28;20400;-76
2023/12/25 04:02:40;;;;;;;17.53;3.30;;;10.30;99.90;;;;;;5094665;28;20044;-76
2023/12/25 04:05:06;;;;;;;17.93;3.10;;;10.30;99.90;;;;;;5095445;28;20282;-76
2023/12/25 04:07:32;;;;;;;23.30;2.63;;;10.30;99.90;;;;;;5093394;28;20329;-76
2023/12/25 04:09:58;;;;;;;14.60;2.87;;;10.30;99.90;;;;;;5094507;28;20321;-76
2023/12/25 04:12:24;;;;;;;14.53;2.97;;;10.30;99.90;;;;;;5094213;28;20605;-76
2023/12/25 04:14:50;;;;;;;15.97;2.70;;;10.30;99.90;;;;;;5093491;28;20369;-76
2023/12/25 04:17:16;;;;;;;15.57;3.27;;;10.30;99.90;;;;;;5094616;28;20040;-76
2023/12/25 04:19:42;;;;;;;24.23;4.20;;;10.30;99.90;;;;;;5093937;28;20056;-76
2023/12/25 04:22:07;;;;;;;13.90;3.37;;;10.30;99.90;;;;;;5094872;28;20043;-76
2023/12/25 04:24:33;;;;;;;18.07;3.87;;;10.30;99.90;;;;;;5093996;28;20305;-76
2023/12/25 04:26:59;;;;;;;17.20;3.33;;;10.30;99.90;;;;;;5094259;28;20048;-76
2023/12/25 04:29:24;;;;;;;15.83;3.30;;;10.30;99.90;;;;;;5094203;28;20078;-76
2023/12/25 04:31:50;;;;;;;22.90;4.70;;;10.20;99.90;;;;;;5094181;28;20219;-76
2023/12/25 04:34:16;;;;;;;15.30;3.03;;;10.20;99.90;;;;;;5092979;28;20052;-76
2023/12/25 04:36:42;;;;;;;17.50;3.10;;;10.20;99.90;;;;;;5093925;28;20297;-76
2023/12/25 04:39:08;;;;;;;16.07;3.37;;;10.20;99.90;;;;;;5094255;28;20090;-76
2023/12/25 04:41:33;;;;;;;20.47;3.60;;;10.20;99.90;;;;;;5094612;28;20134;-76
2023/12/25 04:43:59;;;;;;;17.70;3.17;;;10.20;99.90;;;;;;5093916;28;20523;-76
2023/12/25 04:46:25;;;;;;;17.90;2.77;;;10.20;99.90;;;;;;5093853;28;20048;-76
2023/12/25 04:48:50;;;;;;;22.00;3.70;;;10.20;99.90;;;;;;5093882;28;20044;-76
2023/12/25 04:51:16;;;;;;;16.33;3.70;;;10.20;99.90;;;;;;5094233;28;20075;-76
2023/12/25 04:53:42;;;;;;;16.33;3.20;;;10.20;99.90;;;;;;5094409;28;20056;-77
2023/12/25 04:56:11;;;;;;;22.93;3.60;;;10.20;99.90;;;;;;5093750;28;20048;-76
2023/12/25 04:58:38;;;;;;;20.07;3.40;;;10.20;99.90;;;;;;5093846;28;20056;-76
2023/12/25 05:01:04;;;;;;;22.37;3.27;;;10.20;99.90;;;;;;5093731;28;20811;-76
2023/12/25 05:03:30;;;;;;;23.50;3.40;;;10.20;99.90;;;;;;5093791;28;20282;-76
2023/12/25 05:05:56;;;;;;;23.90;3.97;;;10.20;99.90;;;;;;5093680;28;20305;-77
2023/12/25 05:08:22;;;;;;;18.17;3.13;;;10.10;99.90;;;;;;5092425;28;20055;-77
2023/12/25 05:10:48;;;;;;;18.33;3.60;;;10.10;99.90;;;;;;5093673;28;20301;-77
2023/12/25 05:13:14;;;;;;;18.13;3.40;;;10.10;99.90;;;;;;5093672;28;20137;-77
2023/12/25 05:15:40;;;;;;;24.10;4.47;;;10.10;99.90;;;;;;5093501;28;20286;-76
2023/12/25 05:18:06;;;;;;;19.97;4.03;;;10.10;99.90;;;;;;5075567;28;20807;-77
2023/12/25 05:20:32;;;;;;;24.17;3.77;;;10.10;99.90;;;;;;5093419;28;20044;-77
2023/12/25 05:22:57;;;;;;;23.47;4.10;;;10.10;99.90;;;;;;5093411;28;20066;-77
2023/12/25 05:25:23;;;;;;;20.53;3.80;;;10.10;99.90;;;;;;5093561;28;20047;-77
2023/12/25 05:27:49;;;;;;;21.23;4.50;;;10.10;99.90;;;;;;5093497;28;20378;-77
2023/12/25 05:30:15;;;;;;;21.03;4.13;;;10.00;99.90;;;;;;5093842;28;20048;-77
2023/12/25 05:32:40;;;;;;;25.40;4.30;;;10.00;99.90;;;;;;5092520;28;20480;-77
2023/12/25 05:35:06;;;;;;;27.03;4.63;;;10.00;99.90;;;;;;5093317;28;20044;-77
2023/12/25 05:37:32;;;;;;;20.60;3.83;;;10.00;99.90;;;;;;5093400;28;20086;-77
2023/12/25 05:39:59;;;;;;;16.50;3.30;;;10.00;99.90;;;;;;5093404;28;20687;-77
2023/12/25 05:42:24;;;;;;;16.87;3.30;;;10.00;99.90;;;;;;5076621;28;20101;-77
2023/12/25 05:44:50;;;;;;;19.57;3.77;;;10.00;99.90;;;;;;5093386;28;20630;-78
2023/12/25 05:47:16;;;;;;;18.93;2.97;;;10.00;99.90;;;;;;5093175;28;20456;-78
2023/12/25 05:49:41;;;;;;;27.37;4.70;;;10.00;99.90;;;;;;5094684;28;20131;-78
2023/12/25 05:52:07;;;;;;;20.60;2.90;;;9.90;99.90;;;;;;5097199;28;20048;-78
2023/12/25 05:54:33;;;;;;;28.67;3.60;;;10.00;99.90;;;;;;5097079;28;20139;-77
2023/12/25 05:56:59;;;;;;;27.87;4.37;;;9.90;99.90;;;;;;5096259;28;20135;-78
2023/12/25 05:59:24;;;;;;;18.77;3.70;;;9.90;99.90;;;;;;5097058;28;20536;-77
2023/12/25 06:01:51;;;;;;;23.93;4.27;;;9.90;99.90;;;;;;5095770;28;20051;-78
2023/12/25 06:04:17;;;;;;;17.70;3.73;;;9.90;99.90;;;;;;5079361;28;20093;-78
2023/12/25 06:06:43;;;;;;;19.97;3.67;;;9.80;99.90;;;;;;5097111;28;20286;-78
2023/12/25 06:09:12;;;;;;;24.83;3.53;;;9.80;99.90;;;;;;5096877;28;20150;-78
2023/12/25 06:11:38;;;;;;;19.87;3.27;;;9.80;99.90;;;;;;5095877;28;20059;-78
2023/12/25 06:14:04;;;;;;;19.13;3.33;;;9.80;99.90;;;;;;5095743;28;20286;-78
2023/12/25 06:16:30;;;;;;;20.63;3.63;;;9.80;99.90;;;;;;5096421;28;20286;-78
2023/12/25 06:18:56;;;;;;;16.97;2.93;;;9.80;99.90;;;;;;5095392;28;20317;-78
2023/12/25 06:21:21;;;;;;;19.10;3.57;;;9.80;99.90;;;;;;5096634;28;20105;-78
2023/12/25 06:23:47;;;;;;;18.17;3.30;;;9.90;99.90;;;;;;5096578;28;20084;-78
2023/12/25 06:26:13;;;;;;;22.13;3.40;;;9.90;99.90;;;;;;5096574;28;20055;-78
2023/12/25 06:28:38;;;;;;;23.63;3.53;;;9.90;99.90;;;;;;5097264;28;20051;-78
2023/12/25 06:31:04;;;;;;;21.67;3.20;;;9.80;99.90;;;;;;5096343;28;20495;-78
2023/12/25 06:33:30;;;;;;;26.60;4.63;;;9.80;99.90;;;;;;5096659;28;20040;-78
2023/12/25 06:35:56;;;;;;;29.80;3.97;;;9.80;99.90;;;;;;5096290;28;20472;-78
2023/12/25 06:38:22;;;;;;;24.83;4.90;;;9.80;99.90;;;;;;5095032;28;20055;-78
2023/12/25 06:40:47;;;;;;;18.63;3.47;;;9.80;99.90;;;;;;5079262;28;20407;-78
2023/12/25 06:43:13;;;;;;;23.47;3.63;;;9.80;99.90;;;;;;5096135;28;20098;-78
2023/12/25 06:45:39;;;;;;;19.40;3.07;;;9.70;99.90;;;;;;5095857;28;20089;-78
2023/12/25 06:48:05;;;;;;;24.07;3.37;;;9.70;99.90;;;;;;5096648;28;20036;-78
2023/12/25 06:50:30;;;;;;;20.50;3.97;;;9.70;99.90;;;;;;5096082;28;20127;-78
2023/12/25 06:52:56;;;;;;;20.40;3.63;;;9.70;99.90;;;;;;5096021;28;20361;-78
2023/12/25 06:55:22;;;;;;;18.77;3.87;;;9.70;99.90;;;;;;5095800;28;20056;-78
2023/12/25 06:57:47;;;;;;;19.23;2.87;;;9.60;99.90;;;;;;5096458;28;20465;-78
2023/12/25 07:00:13;;;;;;;18.63;3.13;;;9.60;99.90;;;;;;5096667;28;20094;-78
2023/12/25 07:02:40;;;;;;;16.37;3.47;;;9.60;99.90;;;;;;5094489;28;20052;-78
2023/12/25 07:05:06;;;;;;;22.90;3.67;;;9.60;99.90;;;;;;5096378;28;20083;-78
2023/12/25 07:07:31;;;;;;;24.87;4.07;;;9.60;99.90;;;;;;5094511;28;20301;-78
2023/12/25 07:09:57;;;;;;;22.67;4.20;;;9.60;99.90;;;;;;5094505;28;20642;-78
2023/12/25 07:12:23;;;;;;;17.80;3.13;;;9.50;99.90;;;;;;5094477;28;20079;-78
2023/12/25 07:14:50;;;;;;;20.83;3.90;;;9.50;99.90;;;;;;5095495;28;20080;-78
2023/12/25 07:17:17;;;;;;;20.83;3.57;;;9.50;99.90;;;;;;5096036;28;20380;-78
2023/12/25 07:19:46;;;;;;;19.23;2.70;;;9.50;99.90;;;;;;5061074;28;20314;-78
2023/12/25 07:22:11;;;;;;;19.63;2.87;;;9.50;99.90;;;;;;5095128;28;20404;-78
2023/12/25 07:24:37;;;;;;;24.47;3.90;;;9.50;99.90;;;;;;5095246;28;20290;-78
2023/12/25 07:27:07;;;;;;;17.17;3.07;;;9.40;99.90;;;;;;5077896;28;20415;-78
2023/12/25 07:29:33;;;;;;;17.13;3.60;;;9.40;99.90;;;;;;5095317;28;20278;-78
2023/12/25 07:31:59;;;;;;;18.03;3.27;;;9.40;99.90;;;;;;5111661;28;20289;-78
2023/12/25 07:34:24;;;;;;;15.50;3.50;;;9.40;99.90;;;;;;5094557;28;20052;-78
2023/12/25 07:36:50;;;;;;;19.00;3.73;;;9.40;99.90;;;;;;5095070;28;20036;-78
2023/12/25 07:39:16;;;;;;;16.07;2.87;;;9.40;99.90;;;;;;5093905;28;20040;-77
2023/12/25 07:41:45;;;;;;;23.07;4.27;;;9.40;99.90;;;;;;5095061;28;20048;-78
2023/12/25 07:44:12;;;;;;;17.37;3.07;;;9.40;99.90;;;;;;5094984;28;20048;-78
2023/12/25 07:46:38;;;;;;;18.70;3.20;;;9.40;99.90;;;;;;5095181;28;20293;-77
2023/12/25 07:49:03;;;;;;;20.47;3.93;;;9.40;99.90;;;;;;5095046;28;20746;-78
2023/12/25 07:51:29;;;;;;;19.43;3.87;;;9.40;99.90;;;;;;5077045;28;20109;-77
2023/12/25 07:53:55;;;;;;;18.23;3.57;;;9.40;99.90;;;;;;5095705;28;20055;-77
2023/12/25 07:56:20;;;;;;;24.17;4.37;;;9.50;99.90;;;;;;5094811;28;20403;-77
2023/12/25 07:58:46;;;;;;;22.33;3.43;;;9.50;99.90;;;;;;5095180;28;20488;-77
2023/12/25 08:01:13;;;;;;;20.87;3.23;;;9.50;99.90;;;;;;5093691;28;20101;-78
2023/12/25 08:03:39;;;;;;;20.90;3.40;;;9.50;99.90;;;;;;5095263;28;20055;-78
2023/12/25 08:06:05;;;;;;;22.20;3.87;;;9.50;99.90;;;;;;5093378;28;20286;-78
2023/12/25 08:08:31;;;;;;;17.60;3.33;;;9.50;99.90;;;;;;5093516;28;20052;-79
2023/12/25 08:10:58;;;;;;;22.63;3.37;;;9.60;99.90;;;;;;5095394;28;20336;-77
2023/12/25 08:13:23;;;;;;;22.13;3.83;;;9.60;99.90;;;;;;5092394;28;20367;-76
2023/12/25 08:15:49;;;;;;;16.13;3.47;;;9.50;99.90;;;;;;5093515;28;20325;-76
2023/12/25 08:18:15;;;;;;;18.27;3.20;;;9.50;99.90;;;;;;5093160;28;20488;-77
2023/12/25 08:20:40;;;;;;;22.47;3.47;;;9.60;99.90;;;;;;5077429;28;20089;-77
2023/12/25 08:23:06;;;;;;;16.87;2.97;;;9.50;99.90;;;;;;5094583;28;20427;-78
2023/12/25 08:25:32;;;;;;;16.67;2.60;;;9.60;99.90;;;;;;5094072;28;20052;-80
2023/12/25 08:27:58;;;;;;;20.53;3.93;;;9.60;99.90;;;;;;5094261;28;20491;-75
2023/12/25 08:30:24;;;;;;;24.53;5.43;;;9.60;99.90;;;;;;5094188;28;20331;-77
2023/12/25 08:32:50;;;;;;;23.87;3.87;;;9.50;99.90;;;;;;5094137;28;20274;-75
2023/12/25 08:35:15;;;;;;;23.10;3.27;;;9.50;99.90;;;;;;5094045;28;20044;-75
2023/12/25 08:37:41;;;;;;;27.70;3.90;;;9.50;99.90;;;;;;5093929;28;20147;-76
2023/12/25 08:40:07;;;;;;;14.70;3.20;;;9.50;99.90;;;;;;5094641;28;20059;-76
2023/12/25 08:42:33;;;;;;;19.60;3.73;;;9.50;99.90;;;;;;5094056;28;20047;-76
2023/12/25 08:44:59;;;;;;;23.93;4.40;;;9.60;99.90;;;;;;5093942;28;20293;-76
2023/12/25 08:47:26;;;;;;;21.17;3.70;;;9.50;99.90;;;;;;5093894;28;20286;-76
2023/12/25 08:49:52;;;;;;;20.60;3.80;;;9.50;99.90;;;;;;5093980;28;20130;-76
2023/12/25 08:52:18;;;;;;;24.83;4.00;;;9.50;99.90;;;;;;5093683;28;20325;-76
2023/12/25 08:54:44;;;;;;;21.60;3.67;;;9.50;99.90;;;;;;5093727;28;20326;-77
2023/12/25 08:57:09;;;;;;;19.83;3.83;;;9.50;99.90;;;;;;5093999;28;20052;-77
2023/12/25 08:59:36;;;;;;;21.00;3.30;;;9.40;99.90;;;;;;5093737;28;20388;-76
2023/12/25 09:02:02;;;;;;;22.40;3.37;;;9.50;99.90;;;;;;5094617;28;20070;-74
2023/12/25 09:04:28;;;;;;;19.97;3.17;;;9.40;99.90;;;;;;5094069;28;20343;-75
2023/12/25 09:06:54;;;;;;;18.17;3.13;;;9.40;99.90;;;;;;5093905;28;20754;-77
2023/12/25 09:09:19;;;;;;;18.90;3.53;;;9.40;99.90;;;;;;5093625;28;20400;-78
2023/12/25 09:11:47;;;;;;;20.10;3.43;;;9.40;99.90;;;;;;5093586;28;20078;-77
2023/12/25 09:14:13;;;;;;;23.53;3.57;;;9.40;99.90;;;;;;5094250;28;20381;-77
2023/12/25 09:16:38;;;;;;;21.10;2.90;;;9.40;99.90;;;;;;5094210;28;20331;-77
2023/12/25 09:19:04;;;;;;;21.73;2.90;;;9.30;99.90;;;;;;5092432;28;20090;-76
2023/12/25 09:21:36;;;;;;;18.17;3.13;;;9.30;99.90;;;;;;5093687;28;20048;-76
2023/12/25 09:24:02;;;;;;;18.63;3.90;;;9.30;99.90;;;;;;5092658;28;20044;-76
2023/12/25 09:26:28;;;;;;;17.87;2.90;;;9.40;99.90;;;;;;5096401;28;20282;-77
2023/12/25 09:28:54;;;;;;;23.07;3.73;;;9.30;99.90;;;;;;5096668;28;20055;-76
2023/12/25 09:31:19;;;;;;;22.47;3.20;;;9.30;99.90;;;;;;5096557;28;20461;-75
2023/12/25 09:33:45;;;;;;;19.73;3.13;;;9.30;99.90;;;;;;5097457;28;20044;-76
2023/12/25 09:36:11;;;;;;;19.97;3.17;;;9.40;99.90;;;;;;5096844;28;20044;-77
2023/12/25 09:38:36;;;;;;;21.57;3.30;;;9.40;99.90;;;;;;5097391;28;20040;-76
2023/12/25 09:41:06;;;;;;;16.50;3.73;;;9.30;99.90;;;;;;5097435;28;20488;-76
2023/12/25 09:43:34;;;;;;;23.97;3.13;;;9.40;99.90;;;;;;5097216;28;20060;-76
2023/12/25 09:46:02;;;;;;;18.83;2.90;;;9.40;99.90;;;;;;5096458;28;20279;-77
2023/12/25 09:48:28;;;;;;;19.53;4.00;;;9.50;99.90;;;;;;5096260;28;20339;-75
2023/12/25 09:50:57;;;;;;;23.00;3.57;;;9.50;99.90;;;;;;5097219;28;20282;-77
2023/12/25 09:53:23;;;;;;;18.23;3.50;;;9.50;99.90;;;;;;5097215;28;20131;-77
2023/12/25 09:55:50;;;;;;;18.13;3.10;;;9.50;99.90;;;;;;5097120;28;20356;-76
2023/12/25 09:58:18;;;;;;;23.40;4.40;;;9.50;99.90;;;;;;5095623;28;20044;-76
2023/12/25 10:00:44;;;;;;;30.00;4.83;;;9.50;99.90;;;;;;5096566;28;20638;-77
2023/12/25 10:03:10;;;;;;;17.27;3.23;;;9.50;99.90;;;;;;5096039;28;20650;-79
2023/12/25 10:05:35;;;;;;;23.47;4.10;;;9.50;99.90;;;;;;5095869;28;20298;-77
2023/12/25 10:08:01;;;;;;;18.53;4.10;;;9.60;99.90;;;;;;5097267;28;20185;-78
2023/12/25 10:10:31;;;;;;;22.93;4.73;;;9.60;99.90;;;;;;5062455;28;20054;-77
2023/12/25 10:13:00;;;;;;;19.97;3.67;;;9.60;99.90;;;;;;5096827;28;20400;-77
2023/12/25 10:15:26;;;;;;;21.67;4.17;;;9.60;99.90;;;;;;5096776;28;20323;-80
2023/12/25 10:18:03;;;;;;;21.37;4.60;;;9.60;99.90;;;;;;5096660;28;20298;-80
2023/12/25 10:20:30;;;;;;;20.03;3.60;;;9.60;99.90;;;;;;5096059;28;20127;-82
2023/12/25 10:22:56;;;;;;;22.40;3.70;;;9.60;99.90;;;;;;5095523;28;20285;-80
2023/12/25 10:25:28;;;;;;;21.03;3.67;;;9.70;99.90;;;;;;5095558;28;20301;-80
2023/12/25 10:27:54;;;;;;;21.07;3.97;;;9.60;99.90;;;;;;5096367;28;20286;-81
2023/12/25 10:30:26;;;;;;;23.20;3.67;;;9.70;99.90;;;;;;5097171;28;20297;-82
2023/12/25 10:33:09;;;;;;;24.57;3.90;;;9.60;99.90;;;;;;5096457;28;20289;-83
2023/12/25 10:35:35;;;;;;;26.57;4.10;;;9.70;99.90;;;;;;5094778;28;20282;-75
2023/12/25 10:38:06;;;;;;;18.47;3.17;;;9.70;99.90;;;;;;5096399;28;20302;-76
2023/12/25 10:40:33;;;;;;;21.57;4.03;;;9.60;99.90;;;;;;5097177;28;20328;-76
2023/12/25 10:42:59;;;;;;;23.07;4.07;;;9.60;99.90;;;;;;5095930;28;20846;-76
2023/12/25 10:45:26;;;;;;;18.67;3.63;;;9.70;99.90;;;;;;5096036;28;20381;-77
2023/12/25 10:47:57;;;;;;;27.43;5.07;;;9.70;99.90;;;;;;5094997;28;20294;-76
2023/12/25 10:50:27;;;;;;;23.97;3.30;;;9.70;99.90;;;;;;5096145;28;20290;-77
2023/12/25 10:52:54;;;;;;;31.73;5.97;;;9.70;99.90;;;;;;5095533;28;20278;-76
2023/12/25 10:55:49;;;;;;;33.53;6.03;;;9.70;99.90;;;;;;5096068;28;20361;-76
2023/12/25 10:58:17;;;;;;;20.98;3.92;;;9.80;99.90;;;;;;5082457;28;20317;-75
2023/12/25 11:00:43;;;;;;;29.50;4.33;;;9.80;99.90;;;;;;5095819;28;20136;-75
2023/12/25 11:03:14;;;;;;;26.37;5.57;;;9.70;99.90;;;;;;5095706;28;20774;-75
2023/12/25 11:05:40;;;;;;;23.00;4.20;;;9.80;99.90;;;;;;5095788;28;20336;-75
2023/12/25 11:08:06;;;;;;;24.23;3.87;;;9.80;99.90;;;;;;5096910;28;20298;-75
2023/12/25 11:10:32;;;;;;;28.93;4.60;;;9.80;99.90;;;;;;5095617;28;20293;-79
2023/12/25 11:12:59;;;;;;;27.57;4.57;;;9.80;99.90;;;;;;5095649;28;20312;-75
2023/12/25 11:15:24;;;;;;;28.03;5.03;;;9.80;99.90;;;;;;5096144;28;20392;-78
2023/12/25 11:17:51;;;;;;;25.33;4.13;;;9.80;99.90;;;;;;5095420;28;20638;-77
2023/12/25 11:20:17;;;;;;;26.40;4.33;;;9.80;99.90;;;;;;5094826;28;20080;-77
2023/12/25 11:22:44;;;;;;;19.53;4.20;;;9.80;99.90;;;;;;5095464;28;20285;-81
2023/12/25 11:25:18;;;;;;;24.13;4.73;;;9.80;99.90;;;;;;5095466;28;20361;-74
2023/12/25 11:27:51;;;;;;;29.67;6.40;;;9.80;99.90;;;;;;5095942;28;20321;-75
2023/12/25 11:30:19;;;;;;;30.27;4.67;;;9.80;99.90;;;;;;5096248;28;20296;-74
2023/12/25 11:32:48;;;;;;;21.40;4.27;;;9.80;99.90;;;;;;5095836;28;20282;-77
2023/12/25 11:35:25;;;;;;;25.10;4.00;;;9.80;99.90;;;;;;5096063;28;20634;-74
2023/12/25 11:38:18;;;;;;;23.00;4.43;;;9.80;99.90;;;;;;5095134;28;20389;-76
2023/12/25 11:40:52;;;;;;;29.03;4.40;;;9.80;99.90;;;;;;5094793;28;20289;-73
2023/12/25 11:43:19;;;;;;;20.60;4.28;;;9.90;99.90;;;;;;5094008;28;20286;-74
2023/12/25 11:45:52;;;;;;;24.23;4.50;;;9.90;99.90;;;;;;5095049;28;20476;-74
2023/12/25 11:48:18;;;;;;;22.40;4.03;;;9.90;99.90;;;;;;5094587;28;20743;-75
2023/12/25 11:50:45;;;;;;;25.63;3.83;;;9.90;99.90;;;;;;5095498;28;20282;-75
2023/12/25 11:53:39;;;;;;;31.93;5.23;;;9.90;99.90;;;;;;5093939;28;20044;-75
2023/12/25 11:56:08;;;;;;;26.03;4.30;;;10.00;99.90;;;;;;5095440;28;20361;-77
2023/12/25 11:58:35;;;;;;;28.90;4.50;;;10.00;99.90;;;;;;5093448;28;20627;-75
2023/12/25 12:01:01;;;;;;;25.27;4.80;;;10.10;99.90;;;;;;5093230;28;20282;-77
2023/12/25 12:03:28;;;;;;;23.03;4.13;;;10.10;99.90;;;;;;5094328;28;20420;-78
2023/12/25 12:05:54;;;;;;;30.17;4.60;;;10.20;99.90;;;;;;5094370;28;20296;-78
2023/12/25 12:08:20;;;;;;;21.03;4.23;;;10.20;99.90;;;;;;5093334;28;20774;-75
2023/12/25 12:10:46;;;;;;;22.37;4.23;;;10.30;99.90;;;;;;5094090;28;20285;-74
2023/12/25 12:13:14;;;;;;;15.57;3.47;;;10.30;99.90;;;;;;5093873;28;20444;-75
2023/12/25 12:15:40;;;;;;;18.63;3.63;;;10.30;99.90;;;;;;5094026;28;20044;-78
2023/12/25 12:18:06;;;;;;;15.93;3.00;;;10.30;99.90;;;;;;5093484;28;20304;-75
2023/12/25 12:20:32;;;;;;;22.80;3.20;;;10.40;99.90;;;;;;5093393;28;20130;-74
2023/12/25 12:22:58;;;;;;;20.43;3.53;;;10.30;99.90;;;;;;5094108;28;20058;-74
2023/12/25 12:25:23;;;;;;;23.47;4.50;;;10.30;99.90;;;;;;5093505;28;20059;-74
2023/12/25 12:27:49;;;;;;;20.40;3.10;;;10.30;99.90;;;;;;5094452;28;20047;-74
2023/12/25 12:30:16;;;;;;;21.77;3.93;;;10.30;99.90;;;;;;5093197;28;20415;-74
2023/12/25 12:32:42;;;;;;;18.10;3.70;;;10.30;99.90;;;;;;5094375;28;20123;-75
2023/12/25 12:35:08;;;;;;;18.83;3.73;;;10.20;99.90;;;;;;5094107;28;20294;-75
2023/12/25 12:37:35;;;;;;;19.53;4.47;;;10.20;99.90;;;;;;5093079;28;20630;-75